Time;durP1;ratioP1;P1;durP2;ratioP2;P2;SDS_P1;SDS_P2;PMS_P1;PMS_P2;Temp;Humidity;BMP_temperature;BMP_pressure;BME280_temperature;BME280_humidity;BME280_pressure;Samples;Min_cycle;Max_cycle;Signal;HPM_P1;HPM_P2
2021/11/04 00:01:11;;;;;;;10.47;7.80;;;18.70;57.00;;;;;;4874483;29;20462;-78
2021/11/04 00:03:39;;;;;;;10.30;7.73;;;18.70;57.70;;;;;;4876139;29;20565;-78
2021/11/04 00:06:06;;;;;;;13.63;7.40;;;18.70;57.10;;;;;;4876341;29;20518;-77
2021/11/04 00:08:35;;;;;;;11.20;8.63;;;18.70;57.00;;;;;;4880071;29;20550;-78
2021/11/04 00:11:03;;;;;;;10.50;6.93;;;18.70;57.10;;;;;;4876246;29;20444;-78
2021/11/04 00:13:33;;;;;;;9.90;7.57;;;18.70;57.00;;;;;;4876077;29;20455;-79
2021/11/04 00:16:01;;;;;;;12.07;7.90;;;18.70;57.10;;;;;;4872565;29;20459;-78
2021/11/04 00:18:29;;;;;;;11.27;8.10;;;18.70;57.20;;;;;;4877510;29;20447;-79
2021/11/04 00:20:57;;;;;;;10.30;7.40;;;18.70;57.10;;;;;;4886581;29;20451;-78
2021/11/04 00:23:25;;;;;;;9.33;7.53;;;18.70;57.20;;;;;;4889647;29;20517;-78
2021/11/04 00:25:53;;;;;;;12.80;7.77;;;18.70;57.20;;;;;;4886224;29;20565;-78
2021/11/04 00:28:21;;;;;;;9.60;7.17;;;18.70;57.20;;;;;;4889207;29;20481;-78
2021/11/04 00:30:50;;;;;;;9.10;7.30;;;18.70;57.20;;;;;;4890440;29;20514;-78
2021/11/04 00:33:18;;;;;;;10.20;7.93;;;18.60;57.10;;;;;;4887705;29;20507;-78
2021/11/04 00:35:46;;;;;;;11.77;7.87;;;18.70;57.30;;;;;;4891020;29;20493;-78
2021/11/04 00:38:14;;;;;;;17.53;8.10;;;18.70;57.20;;;;;;4889014;29;20442;-78
2021/11/04 00:40:42;;;;;;;9.93;7.80;;;18.70;57.20;;;;;;4888610;29;20499;-78
2021/11/04 00:43:11;;;;;;;8.60;7.60;;;18.60;57.80;;;;;;4890716;29;20430;-78
2021/11/04 00:45:39;;;;;;;11.13;8.60;;;18.70;57.30;;;;;;4886179;29;20558;-78
2021/11/04 00:48:08;;;;;;;8.50;6.80;;;18.60;57.20;;;;;;4888845;29;20441;-78
2021/11/04 00:50:36;;;;;;;10.83;7.83;;;18.70;57.40;;;;;;4887854;29;20445;-78
2021/11/04 00:53:04;;;;;;;11.77;7.47;;;18.60;57.20;;;;;;4889316;29;20510;-78
2021/11/04 00:55:32;;;;;;;14.47;7.17;;;18.70;57.30;;;;;;4882420;29;20470;-78
2021/11/04 00:58:00;;;;;;;8.67;6.80;;;18.60;57.40;;;;;;4880153;29;20473;-78
2021/11/04 01:00:28;;;;;;;8.10;6.57;;;18.70;57.30;;;;;;4874995;29;20517;-78
2021/11/04 01:02:56;;;;;;;8.80;7.20;;;18.70;57.30;;;;;;4880146;29;20480;-78
2021/11/04 01:05:25;;;;;;;9.30;7.50;;;18.60;57.20;;;;;;4879790;29;20489;-78
2021/11/04 01:07:54;;;;;;;10.23;6.77;;;18.60;57.30;;;;;;4879727;29;20530;-78
2021/11/04 01:10:24;;;;;;;9.83;6.73;;;18.70;57.40;;;;;;4880453;29;20482;-78
2021/11/04 01:12:52;;;;;;;11.20;7.50;;;18.60;57.30;;;;;;4879850;29;20486;-77
2021/11/04 01:15:20;;;;;;;10.60;7.53;;;18.60;57.40;;;;;;4879154;29;20483;-75
2021/11/04 01:17:49;;;;;;;9.63;6.70;;;18.60;57.40;;;;;;4879533;29;20470;-75
2021/11/04 01:20:17;;;;;;;9.23;6.77;;;18.60;57.30;;;;;;4879755;29;20435;-76
2021/11/04 01:22:48;;;;;;;9.80;7.00;;;18.60;57.40;;;;;;4879640;29;20431;-75
2021/11/04 01:25:16;;;;;;;7.90;6.50;;;18.70;57.40;;;;;;4879828;29;20522;-75
2021/11/04 01:27:44;;;;;;;11.63;7.03;;;18.60;57.40;;;;;;4879552;29;20482;-76
2021/11/04 01:30:13;;;;;;;8.80;7.00;;;18.60;57.40;;;;;;4879708;29;20446;-76
2021/11/04 01:32:41;;;;;;;9.10;7.47;;;18.60;57.40;;;;;;4879376;29;20459;-76
2021/11/04 01:35:09;;;;;;;9.77;7.07;;;18.70;57.50;;;;;;4879731;29;20466;-76
2021/11/04 01:37:37;;;;;;;8.70;6.90;;;18.60;57.30;;;;;;4879856;29;20476;-76
2021/11/04 01:40:08;;;;;;;8.30;7.07;;;18.60;57.40;;;;;;4879710;29;20465;-76
2021/11/04 01:42:36;;;;;;;9.10;7.30;;;18.60;57.40;;;;;;4879844;29;20458;-76
2021/11/04 01:45:05;;;;;;;10.80;6.40;;;18.60;57.40;;;;;;4879545;29;20503;-76
2021/11/04 01:47:33;;;;;;;7.57;6.40;;;18.60;57.60;;;;;;4879968;29;20554;-76
2021/11/04 01:50:08;;;;;;;8.70;7.07;;;18.60;57.50;;;;;;4879783;29;20486;-75
2021/11/04 01:52:36;;;;;;;13.83;7.17;;;18.60;57.40;;;;;;4879843;29;20486;-75
2021/11/04 01:55:05;;;;;;;7.90;6.80;;;18.60;57.50;;;;;;4879470;29;20521;-75
2021/11/04 01:57:34;;;;;;;8.73;6.50;;;18.60;57.40;;;;;;4863304;29;20476;-76
2021/11/04 02:00:02;;;;;;;7.27;6.10;;;18.60;57.40;;;;;;4861249;29;20515;-75
2021/11/04 02:02:30;;;;;;;8.10;6.60;;;18.60;57.40;;;;;;4861124;29;20455;-75
2021/11/04 02:05:00;;;;;;;9.53;6.90;;;18.60;57.50;;;;;;4861313;29;20456;-75
2021/11/04 02:07:33;;;;;;;7.30;6.57;;;18.60;57.50;;;;;;4861091;29;20512;-75
2021/11/04 02:10:04;;;;;;;7.77;6.37;;;18.60;57.50;;;;;;4861187;29;20450;-75
2021/11/04 02:12:36;;;;;;;7.17;6.43;;;18.60;57.50;;;;;;4860944;29;20451;-74
2021/11/04 02:15:05;;;;;;;9.97;7.07;;;18.60;57.50;;;;;;4860868;29;20527;-74
2021/11/04 02:17:33;;;;;;;7.80;6.40;;;18.60;57.60;;;;;;4860527;29;20490;-74
2021/11/04 02:20:01;;;;;;;7.70;6.87;;;18.60;57.50;;;;;;4860815;29;20479;-74
2021/11/04 02:22:37;;;;;;;8.40;6.63;;;18.60;57.50;;;;;;4860844;29;20444;-75
2021/11/04 02:25:10;;;;;;;8.57;6.40;;;18.60;57.40;;;;;;4860761;29;20534;-76
2021/11/04 02:27:38;;;;;;;8.97;6.70;;;18.60;58.20;;;;;;4863400;29;20491;-75
2021/11/04 02:30:07;;;;;;;7.93;6.00;;;18.60;57.40;;;;;;4863959;29;20502;-77
2021/11/04 02:32:35;;;;;;;7.30;6.30;;;18.60;57.50;;;;;;4863903;29;20487;-77
2021/11/04 02:35:04;;;;;;;8.17;6.57;;;18.60;57.50;;;;;;4863992;29;20463;-76
2021/11/04 02:37:32;;;;;;;7.83;6.20;;;18.60;57.60;;;;;;4863969;29;20511;-77
2021/11/04 02:40:00;;;;;;;8.07;6.30;;;18.60;57.50;;;;;;4864118;29;20496;-77
2021/11/04 02:42:29;;;;;;;8.50;6.93;;;18.60;57.60;;;;;;4864252;29;20487;-77
2021/11/04 02:44:57;;;;;;;10.40;6.10;;;18.60;57.60;;;;;;4863811;29;20470;-77
2021/11/04 02:47:25;;;;;;;10.70;5.90;;;18.50;57.50;;;;;;4863398;29;20487;-77
2021/11/04 02:49:53;;;;;;;8.57;6.07;;;18.60;57.70;;;;;;4863763;29;20455;-74
2021/11/04 02:52:22;;;;;;;7.13;5.93;;;18.60;57.60;;;;;;4863993;29;20533;-75
2021/11/04 02:54:53;;;;;;;6.83;5.93;;;18.60;57.60;;;;;;4863067;29;20476;-75
2021/11/04 02:57:21;;;;;;;6.63;5.60;;;18.60;57.50;;;;;;4877155;29;20499;-75
2021/11/04 02:59:50;;;;;;;8.70;6.57;;;18.50;57.50;;;;;;4882111;29;20518;-76
2021/11/04 03:02:18;;;;;;;6.60;5.63;;;18.50;57.60;;;;;;4880559;29;20467;-74
2021/11/04 03:04:46;;;;;;;6.33;5.73;;;18.60;57.70;;;;;;4881796;29;20489;-75
2021/11/04 03:07:14;;;;;;;8.83;5.80;;;18.50;57.50;;;;;;4883725;29;20486;-74
2021/11/04 03:09:42;;;;;;;6.20;5.30;;;18.50;57.40;;;;;;4878996;29;20498;-75
2021/11/04 03:12:11;;;;;;;8.00;5.80;;;18.50;57.60;;;;;;4883935;29;20537;-75
2021/11/04 03:14:40;;;;;;;8.30;6.03;;;18.60;58.20;;;;;;4882386;29;20454;-76
2021/11/04 03:17:09;;;;;;;7.73;5.57;;;18.60;57.60;;;;;;4884557;29;20447;-76
2021/11/04 03:19:37;;;;;;;6.10;5.27;;;18.50;57.50;;;;;;4881398;29;20446;-76
2021/11/04 03:22:05;;;;;;;7.57;5.60;;;18.50;57.60;;;;;;4874756;29;20578;-75
2021/11/04 03:24:33;;;;;;;6.93;6.10;;;18.50;57.50;;;;;;4882053;29;20545;-75
2021/11/04 03:27:02;;;;;;;6.47;5.50;;;18.50;57.60;;;;;;4881575;29;20474;-76
2021/11/04 03:29:33;;;;;;;7.53;5.90;;;18.50;57.50;;;;;;4881346;29;20538;-76
2021/11/04 03:32:01;;;;;;;6.70;6.00;;;18.50;57.60;;;;;;4881827;29;20467;-76
2021/11/04 03:34:30;;;;;;;6.17;5.57;;;18.50;57.70;;;;;;4881417;29;20480;-76
2021/11/04 03:37:00;;;;;;;5.30;4.80;;;18.50;58.20;;;;;;4881480;29;20478;-76
2021/11/04 03:39:28;;;;;;;8.90;5.37;;;18.50;57.70;;;;;;4880688;29;20444;-76
2021/11/04 03:41:56;;;;;;;7.53;5.93;;;18.50;57.60;;;;;;4881422;29;20478;-76
2021/11/04 03:44:25;;;;;;;11.07;5.77;;;18.50;57.70;;;;;;4881152;29;20454;-75
2021/11/04 03:46:53;;;;;;;6.67;5.50;;;18.50;57.60;;;;;;4881140;29;20565;-76
2021/11/04 03:49:22;;;;;;;7.73;5.70;;;18.50;57.60;;;;;;4881429;29;20483;-76
2021/11/04 03:51:52;;;;;;;5.90;5.27;;;18.50;57.70;;;;;;4881164;29;20435;-76
2021/11/04 03:54:22;;;;;;;7.30;5.00;;;18.50;57.70;;;;;;4881334;29;20534;-76
2021/11/04 03:56:50;;;;;;;6.17;5.50;;;18.50;57.70;;;;;;4881084;29;20506;-76
2021/11/04 03:59:18;;;;;;;5.20;4.70;;;18.50;57.80;;;;;;4881312;29;20459;-77
2021/11/04 04:01:46;;;;;;;7.23;5.27;;;18.50;57.80;;;;;;4881024;29;20421;-77
2021/11/04 04:04:14;;;;;;;5.27;4.60;;;18.50;58.20;;;;;;4881280;29;20435;-76
2021/11/04 04:06:42;;;;;;;6.73;5.20;;;18.50;57.80;;;;;;4881061;29;20572;-75
2021/11/04 04:09:11;;;;;;;6.10;5.30;;;18.50;57.80;;;;;;4881116;29;20501;-75
2021/11/04 04:11:39;;;;;;;7.60;5.63;;;18.40;57.80;;;;;;4880949;29;20454;-76
2021/11/04 04:14:08;;;;;;;5.80;5.27;;;18.50;57.90;;;;;;4880628;29;20458;-76
2021/11/04 04:16:35;;;;;;;7.80;6.00;;;18.50;58.40;;;;;;4880928;29;20485;-76
2021/11/04 04:19:04;;;;;;;6.03;5.30;;;18.50;57.80;;;;;;4880678;29;20526;-76
2021/11/04 04:21:31;;;;;;;5.33;4.83;;;18.50;57.80;;;;;;4881039;29;20541;-76
2021/11/04 04:24:00;;;;;;;5.40;4.90;;;18.50;57.90;;;;;;4880701;29;20443;-75
2021/11/04 04:26:29;;;;;;;5.87;5.27;;;18.50;57.90;;;;;;4880886;29;20474;-75
2021/11/04 04:28:57;;;;;;;5.87;5.33;;;18.40;57.80;;;;;;4880699;29;20482;-77
2021/11/04 04:31:25;;;;;;;5.80;5.20;;;18.50;58.60;;;;;;4880743;29;20435;-77
2021/11/04 04:33:53;;;;;;;5.17;4.67;;;18.50;57.90;;;;;;4880404;29;20443;-76
2021/11/04 04:36:21;;;;;;;6.23;5.10;;;18.50;57.90;;;;;;4880865;29;20491;-77
2021/11/04 04:38:49;;;;;;;8.70;5.20;;;18.50;57.90;;;;;;4880411;29;20455;-76
2021/11/04 04:41:17;;;;;;;5.90;5.07;;;18.50;57.80;;;;;;4880315;29;20467;-76
2021/11/04 04:43:46;;;;;;;5.13;4.47;;;18.40;57.80;;;;;;4880431;29;20530;-76
2021/11/04 04:46:14;;;;;;;5.40;4.90;;;18.50;58.00;;;;;;4880073;29;20442;-76
2021/11/04 04:48:42;;;;;;;5.23;4.80;;;18.50;57.90;;;;;;4880149;29;20533;-76
2021/11/04 04:51:10;;;;;;;5.83;5.20;;;18.50;58.00;;;;;;4880400;29;20478;-76
2021/11/04 04:53:38;;;;;;;5.17;4.73;;;18.50;58.00;;;;;;4880554;29;20442;-76
2021/11/04 04:56:06;;;;;;;5.60;5.10;;;18.40;57.80;;;;;;4880571;29;20493;-76
2021/11/04 04:58:35;;;;;;;4.93;4.53;;;18.40;58.00;;;;;;4880115;29;20526;-76
2021/11/04 05:01:04;;;;;;;5.67;5.07;;;18.40;57.90;;;;;;4877776;29;20542;-76
2021/11/04 05:03:32;;;;;;;6.27;5.43;;;18.40;57.90;;;;;;4879766;29;20466;-76
2021/11/04 05:06:00;;;;;;;5.53;4.87;;;18.40;57.90;;;;;;4882462;29;20483;-76
2021/11/04 05:08:28;;;;;;;5.53;4.80;;;18.50;58.00;;;;;;4878722;29;20514;-76
2021/11/04 05:10:56;;;;;;;5.10;4.60;;;18.50;58.00;;;;;;4879829;29;20497;-76
2021/11/04 05:13:24;;;;;;;4.77;4.37;;;18.50;58.00;;;;;;4879972;29;20471;-76
2021/11/04 05:15:52;;;;;;;5.00;4.60;;;18.40;57.90;;;;;;4879073;29;20442;-76
2021/11/04 05:18:21;;;;;;;4.80;4.40;;;18.40;58.00;;;;;;4879838;29;20466;-76
2021/11/04 05:20:50;;;;;;;6.17;4.53;;;18.40;58.00;;;;;;4879973;29;20435;-76
2021/11/04 05:23:20;;;;;;;5.70;4.80;;;18.40;58.00;;;;;;4880071;29;20455;-76
2021/11/04 05:25:48;;;;;;;5.13;4.63;;;18.40;57.90;;;;;;4879661;29;20454;-77
2021/11/04 05:28:16;;;;;;;6.13;5.33;;;18.40;58.00;;;;;;4879913;29;20482;-77
2021/11/04 05:30:44;;;;;;;4.83;4.37;;;18.50;58.00;;;;;;4880002;29;20491;-76
2021/11/04 05:33:12;;;;;;;5.20;4.70;;;18.40;57.90;;;;;;4880230;29;20553;-78
2021/11/04 05:35:42;;;;;;;5.03;4.57;;;18.40;57.90;;;;;;4880170;29;20446;-76
2021/11/04 05:38:10;;;;;;;4.80;4.40;;;18.40;57.90;;;;;;4879714;29;20431;-76
2021/11/04 05:40:38;;;;;;;5.20;4.77;;;18.40;57.90;;;;;;4879884;29;20515;-76
2021/11/04 05:43:06;;;;;;;5.40;4.90;;;18.40;57.90;;;;;;4879967;29;20454;-76
2021/11/04 05:45:34;;;;;;;5.53;4.90;;;18.40;58.00;;;;;;4879743;29;20510;-76
2021/11/04 05:48:02;;;;;;;3.93;3.63;;;18.40;58.00;;;;;;4879518;29;20470;-76
2021/11/04 05:50:31;;;;;;;5.30;4.50;;;18.40;58.00;;;;;;4879606;29;20443;-77
2021/11/04 05:53:01;;;;;;;4.50;4.10;;;18.40;58.50;;;;;;4879893;29;20455;-78
2021/11/04 05:55:29;;;;;;;4.27;3.93;;;18.40;58.00;;;;;;4879606;29;20455;-78
2021/11/04 05:57:58;;;;;;;4.50;4.20;;;18.40;58.50;;;;;;4879565;29;20471;-76
2021/11/04 06:00:26;;;;;;;4.97;4.47;;;18.40;58.00;;;;;;4879531;29;20534;-76
2021/11/04 06:02:55;;;;;;;4.80;4.40;;;18.40;58.00;;;;;;4883441;29;20518;-76
2021/11/04 06:05:22;;;;;;;4.87;4.47;;;18.40;58.00;;;;;;4883090;29;20482;-76
2021/11/04 06:07:51;;;;;;;4.87;4.37;;;18.40;58.00;;;;;;4883189;29;20442;-76
2021/11/04 06:10:20;;;;;;;4.73;4.33;;;18.40;58.00;;;;;;4883227;29;20573;-78
2021/11/04 06:12:48;;;;;;;5.10;4.67;;;18.40;58.00;;;;;;4883078;29;20450;-78
2021/11/04 06:15:16;;;;;;;4.57;4.17;;;18.40;58.00;;;;;;4883144;29;20481;-78
2021/11/04 06:17:44;;;;;;;6.97;4.53;;;18.40;58.00;;;;;;4882715;29;20527;-78
2021/11/04 06:20:12;;;;;;;4.57;4.17;;;18.40;58.00;;;;;;4883077;29;20502;-78
2021/11/04 06:22:40;;;;;;;4.67;4.27;;;18.40;58.00;;;;;;4882936;29;20450;-78
2021/11/04 06:25:09;;;;;;;4.57;4.17;;;18.40;58.10;;;;;;4883016;29;20510;-78
2021/11/04 06:27:38;;;;;;;4.90;4.37;;;18.40;58.70;;;;;;4882866;29;20447;-78
2021/11/04 06:30:07;;;;;;;4.43;4.03;;;18.40;58.10;;;;;;4882725;29;20565;-78
2021/11/04 06:32:35;;;;;;;4.10;3.80;;;18.40;58.20;;;;;;4882364;29;20446;-76
2021/11/04 06:35:03;;;;;;;5.20;4.70;;;18.40;58.10;;;;;;4882574;29;20431;-76
2021/11/04 06:37:31;;;;;;;5.17;4.67;;;18.40;58.00;;;;;;4882640;29;20518;-76
2021/11/04 06:39:59;;;;;;;4.20;3.90;;;18.40;58.00;;;;;;4882620;29;20455;-76
2021/11/04 06:42:27;;;;;;;4.60;4.20;;;18.40;58.10;;;;;;4882504;29;20454;-75
2021/11/04 06:44:57;;;;;;;4.43;4.03;;;18.40;58.10;;;;;;4882407;29;20450;-76
2021/11/04 06:47:26;;;;;;;4.03;3.73;;;18.40;58.20;;;;;;4882538;29;20463;-76
2021/11/04 06:49:56;;;;;;;4.20;3.90;;;18.40;58.10;;;;;;4882262;29;20493;-76
2021/11/04 06:52:26;;;;;;;4.53;4.13;;;18.40;58.00;;;;;;4882420;29;20478;-76
2021/11/04 06:54:56;;;;;;;4.17;3.87;;;18.40;58.00;;;;;;4881479;29;20455;-76
2021/11/04 06:57:26;;;;;;;4.53;3.60;;;18.40;58.10;;;;;;4882018;29;20545;-76
2021/11/04 06:59:57;;;;;;;4.57;4.17;;;18.40;58.10;;;;;;4882258;29;20453;-76
2021/11/04 07:02:33;;;;;;;4.40;4.10;;;18.40;58.20;;;;;;4881990;29;20464;-76
2021/11/04 07:05:01;;;;;;;4.67;4.27;;;18.40;58.10;;;;;;4882162;29;20446;-76
2021/11/04 07:07:31;;;;;;;5.10;4.60;;;18.40;58.10;;;;;;4882008;29;20545;-76
2021/11/04 07:10:00;;;;;;;4.40;4.00;;;18.40;58.30;;;;;;4881798;29;20488;-76
2021/11/04 07:12:28;;;;;;;4.07;3.77;;;18.40;58.20;;;;;;4880954;29;20421;-76
2021/11/04 07:14:58;;;;;;;4.10;3.80;;;18.40;58.20;;;;;;4882119;29;20474;-75
2021/11/04 07:17:26;;;;;;;4.03;3.73;;;18.40;58.20;;;;;;4881904;29;20511;-76
2021/11/04 07:19:54;;;;;;;4.40;4.10;;;18.40;58.10;;;;;;4882172;29;20451;-76
2021/11/04 07:22:33;;;;;;;4.30;3.90;;;18.40;58.20;;;;;;4881600;29;20482;-76
2021/11/04 07:25:05;;;;;;;4.43;4.10;;;18.40;58.20;;;;;;4881499;29;20467;-75
2021/11/04 07:27:37;;;;;;;4.00;3.70;;;18.40;58.20;;;;;;4881625;29;20518;-78
2021/11/04 07:30:09;;;;;;;4.40;4.00;;;18.40;58.10;;;;;;4881416;29;20479;-76
2021/11/04 07:32:48;;;;;;;4.07;3.77;;;18.40;58.20;;;;;;4881621;29;20434;-78
2021/11/04 07:35:17;;;;;;;3.83;3.50;;;18.40;58.20;;;;;;4881652;29;20478;-78
2021/11/04 07:37:45;;;;;;;4.33;3.93;;;18.40;58.20;;;;;;4882042;29;20447;-76
2021/11/04 07:40:14;;;;;;;4.60;4.20;;;18.40;58.30;;;;;;4881695;29;20542;-77
2021/11/04 07:42:42;;;;;;;3.80;3.60;;;18.40;58.10;;;;;;4881398;29;20470;-77
2021/11/04 07:45:11;;;;;;;4.20;3.90;;;18.40;58.10;;;;;;4881471;29;20472;-77
2021/11/04 07:47:39;;;;;;;3.50;3.30;;;18.40;58.20;;;;;;4881235;29;20446;-77
2021/11/04 07:50:08;;;;;;;3.37;3.17;;;18.50;58.30;;;;;;4881388;29;20487;-77
2021/11/04 07:52:38;;;;;;;4.33;3.83;;;18.40;58.10;;;;;;4881500;29;20453;-78
2021/11/04 07:55:07;;;;;;;3.83;3.50;;;18.40;58.20;;;;;;4881469;29;20536;-78
2021/11/04 07:57:36;;;;;;;4.23;3.93;;;18.40;58.20;;;;;;4864361;29;20443;-76
2021/11/04 08:00:05;;;;;;;4.03;3.73;;;18.50;58.20;;;;;;4869686;29;20546;-76
2021/11/04 08:02:34;;;;;;;4.20;3.90;;;18.50;58.20;;;;;;4880845;29;20525;-75
2021/11/04 08:05:03;;;;;;;3.70;3.43;;;18.50;58.20;;;;;;4881265;29;20537;-76
2021/11/04 08:07:33;;;;;;;3.90;3.60;;;18.50;58.20;;;;;;4881005;29;20482;-76
2021/11/04 08:10:01;;;;;;;4.40;4.00;;;18.50;58.20;;;;;;4895650;29;20505;-75
2021/11/04 08:12:29;;;;;;;3.77;3.47;;;18.50;58.10;;;;;;4898129;29;20541;-76
2021/11/04 08:14:58;;;;;;;3.87;3.60;;;18.50;58.20;;;;;;4892655;29;20516;-76
2021/11/04 08:17:26;;;;;;;3.87;3.60;;;18.50;58.10;;;;;;4881464;29;20451;-76
2021/11/04 08:19:55;;;;;;;3.67;3.37;;;18.50;58.10;;;;;;4880859;29;20522;-76
2021/11/04 08:22:23;;;;;;;3.87;3.57;;;18.50;58.10;;;;;;4881180;29;20446;-76
2021/11/04 08:24:51;;;;;;;3.60;3.30;;;18.50;58.10;;;;;;4890034;29;20474;-76
2021/11/04 08:27:19;;;;;;;3.53;3.33;;;18.50;58.10;;;;;;4889028;29;20577;-75
2021/11/04 08:29:47;;;;;;;3.90;3.60;;;18.50;58.10;;;;;;4889129;29;20533;-76
2021/11/04 08:32:15;;;;;;;3.50;3.30;;;18.60;58.10;;;;;;4890840;29;20519;-75
2021/11/04 08:34:45;;;;;;;4.27;3.87;;;18.60;58.20;;;;;;4888200;29;20502;-76
2021/11/04 08:37:14;;;;;;;3.90;3.67;;;18.60;58.00;;;;;;4890500;29;20529;-76
2021/11/04 08:39:42;;;;;;;4.10;3.77;;;18.60;58.00;;;;;;4886450;29;20518;-76
2021/11/04 08:42:12;;;;;;;3.80;3.50;;;18.60;58.10;;;;;;4889425;29;20434;-76
2021/11/04 08:44:40;;;;;;;3.30;3.10;;;18.60;58.10;;;;;;4890934;29;20525;-76
2021/11/04 08:47:10;;;;;;;3.93;3.63;;;18.60;58.60;;;;;;4889252;29;20479;-76
2021/11/04 08:49:40;;;;;;;3.97;3.57;;;18.60;58.00;;;;;;4885758;29;20526;-76
2021/11/04 08:52:08;;;;;;;3.40;3.20;;;18.60;58.10;;;;;;4880093;29;20434;-76
2021/11/04 08:54:40;;;;;;;3.27;3.07;;;18.60;58.00;;;;;;4880461;29;20438;-76
2021/11/04 08:57:12;;;;;;;3.73;3.43;;;18.60;58.00;;;;;;4880108;29;20486;-77
2021/11/04 08:59:41;;;;;;;3.80;3.50;;;18.60;57.90;;;;;;4880161;29;20435;-77
2021/11/04 09:02:13;;;;;;;3.90;3.60;;;18.60;58.00;;;;;;4893609;29;20505;-74
2021/11/04 09:04:42;;;;;;;3.63;3.37;;;18.60;58.00;;;;;;4882831;29;20482;-76
2021/11/04 09:07:11;;;;;;;3.70;3.50;;;18.60;58.00;;;;;;4872585;29;20474;-77
2021/11/04 09:09:40;;;;;;;4.23;3.93;;;18.60;57.90;;;;;;4879077;29;20489;-79
2021/11/04 09:12:08;;;;;;;4.10;3.80;;;18.60;57.80;;;;;;4879684;29;20577;-79
2021/11/04 09:14:36;;;;;;;4.17;3.87;;;18.60;57.80;;;;;;4879687;29;20442;-79
2021/11/04 09:17:05;;;;;;;4.07;3.77;;;18.60;57.70;;;;;;4879510;29;20509;-77
2021/11/04 09:19:32;;;;;;;3.83;3.60;;;18.60;57.60;;;;;;4879481;29;20459;-77
2021/11/04 09:22:00;;;;;;;4.70;4.30;;;18.70;57.60;;;;;;4881641;29;20522;-78
2021/11/04 09:24:29;;;;;;;4.00;3.70;;;18.70;57.50;;;;;;4882437;29;20502;-79
2021/11/04 09:27:01;;;;;;;3.97;3.67;;;18.60;57.30;;;;;;4879766;29;20478;-79
2021/11/04 09:29:29;;;;;;;4.40;4.00;;;18.70;57.40;;;;;;4879850;29;20471;-79
2021/11/04 09:31:57;;;;;;;4.50;4.10;;;18.70;57.30;;;;;;4879634;29;20529;-79
2021/11/04 09:34:28;;;;;;;4.67;4.23;;;18.70;57.20;;;;;;4880121;29;20515;-79
2021/11/04 09:36:56;;;;;;;4.17;3.87;;;18.70;57.80;;;;;;4863375;29;20444;-78
2021/11/04 09:39:24;;;;;;;4.90;4.13;;;18.70;57.10;;;;;;4865658;29;20522;-77
2021/11/04 09:41:53;;;;;;;4.00;3.67;;;18.70;57.20;;;;;;4883207;29;20446;-78
2021/11/04 09:44:23;;;;;;;4.33;4.00;;;18.70;57.00;;;;;;4883809;29;20457;-78
2021/11/04 09:46:51;;;;;;;4.80;4.40;;;18.70;57.60;;;;;;4883580;29;20510;-78
2021/11/04 09:49:19;;;;;;;4.63;4.30;;;18.70;56.90;;;;;;4883258;29;20446;-78
2021/11/04 09:51:47;;;;;;;4.33;3.93;;;18.80;56.90;;;;;;4883049;29;20483;-78
2021/11/04 09:54:15;;;;;;;4.10;3.80;;;18.80;56.90;;;;;;4883211;29;20526;-77
2021/11/04 09:56:44;;;;;;;4.37;4.07;;;18.80;57.50;;;;;;4882570;29;20462;-77
2021/11/04 09:59:12;;;;;;;4.27;3.87;;;18.80;56.80;;;;;;4883764;29;20481;-77
2021/11/04 10:01:46;;;;;;;4.63;4.23;;;18.80;56.80;;;;;;4883313;29;20464;-77
2021/11/04 10:04:14;;;;;;;4.00;3.70;;;18.70;56.70;;;;;;4882634;29;20495;-78
2021/11/04 10:06:43;;;;;;;4.53;4.20;;;18.80;56.70;;;;;;4882903;29;20443;-78
2021/11/04 10:09:12;;;;;;;4.00;3.70;;;18.80;56.70;;;;;;4882773;29;20446;-77
2021/11/04 10:11:42;;;;;;;4.20;3.90;;;18.80;56.70;;;;;;4882503;29;20544;-76
2021/11/04 10:14:11;;;;;;;4.30;3.90;;;18.80;56.60;;;;;;4883011;29;20430;-77
2021/11/04 10:16:40;;;;;;;4.57;4.17;;;18.80;56.50;;;;;;4883019;29;20488;-76
2021/11/04 10:19:15;;;;;;;4.50;4.13;;;18.80;56.50;;;;;;4882387;29;20466;-76
2021/11/04 10:21:44;;;;;;;6.60;4.00;;;18.80;56.50;;;;;;4883000;29;20518;-76
2021/11/04 10:24:16;;;;;;;3.90;3.50;;;18.80;56.50;;;;;;4886230;29;20513;-76
2021/11/04 10:26:44;;;;;;;4.07;3.67;;;18.90;56.60;;;;;;4889329;29;20489;-76
2021/11/04 10:29:14;;;;;;;3.80;3.50;;;19.00;56.70;;;;;;4885202;29;20523;-77
2021/11/04 10:31:43;;;;;;;5.00;4.03;;;19.00;56.70;;;;;;4884015;29;20509;-76
2021/11/04 10:34:24;;;;;;;3.93;3.70;;;19.00;56.60;;;;;;4874071;29;20468;-76
2021/11/04 10:36:52;;;;;;;4.10;3.80;;;19.10;56.80;;;;;;4879294;29;20541;-75
2021/11/04 10:39:23;;;;;;;3.33;3.13;;;19.20;56.60;;;;;;4882105;29;20429;-75
2021/11/04 10:41:55;;;;;;;4.43;3.40;;;19.30;56.60;;;;;;4876629;29;20554;-75
2021/11/04 10:44:23;;;;;;;3.53;3.30;;;19.40;56.60;;;;;;4879188;29;20488;-75
2021/11/04 10:46:57;;;;;;;3.57;3.37;;;19.50;56.50;;;;;;4879771;29;20490;-75
2021/11/04 10:49:26;;;;;;;4.80;4.27;;;19.60;56.40;;;;;;4878089;29;20502;-75
2021/11/04 10:51:56;;;;;;;3.90;3.70;;;19.70;56.30;;;;;;4881529;29;20482;-75
2021/11/04 10:54:24;;;;;;;3.40;3.20;;;19.70;56.30;;;;;;4875445;29;20520;-75
2021/11/04 10:56:53;;;;;;;3.57;3.27;;;19.70;56.30;;;;;;4873892;29;20437;-75
2021/11/04 10:59:24;;;;;;;4.17;3.77;;;19.80;56.30;;;;;;4876794;29;20479;-76
2021/11/04 11:01:53;;;;;;;4.03;3.50;;;19.80;56.20;;;;;;4886196;29;20470;-76
2021/11/04 11:04:22;;;;;;;3.20;2.90;;;19.90;56.30;;;;;;4881903;29;20455;-76
2021/11/04 11:06:52;;;;;;;5.03;3.40;;;20.00;56.30;;;;;;4879157;29;20458;-76
2021/11/04 11:09:21;;;;;;;3.63;3.37;;;20.10;56.40;;;;;;4880195;29;20487;-76
2021/11/04 11:11:50;;;;;;;5.63;3.60;;;20.20;56.10;;;;;;4878729;29;20503;-76
2021/11/04 11:14:19;;;;;;;3.70;2.87;;;20.30;56.00;;;;;;4883405;29;20526;-75
2021/11/04 11:16:48;;;;;;;3.10;2.90;;;20.30;56.00;;;;;;4878050;29;20447;-76
2021/11/04 11:19:20;;;;;;;10.43;3.23;;;20.50;55.80;;;;;;4880266;29;20447;-76
2021/11/04 11:21:51;;;;;;;4.10;3.70;;;20.60;55.70;;;;;;4875175;29;20488;-76
2021/11/04 11:24:23;;;;;;;2.70;2.60;;;20.70;55.50;;;;;;4885716;29;20485;-76
2021/11/04 11:26:51;;;;;;;3.57;3.27;;;20.60;55.50;;;;;;4879500;29;20485;-74
2021/11/04 11:29:19;;;;;;;3.23;3.00;;;20.60;55.40;;;;;;4880041;29;20459;-74
2021/11/04 11:31:48;;;;;;;4.53;3.50;;;20.70;55.60;;;;;;4877385;29;20556;-73
2021/11/04 11:34:36;;;;;;;3.50;3.30;;;20.70;55.60;;;;;;4881672;29;20455;-74
2021/11/04 11:37:13;;;;;;;4.93;3.50;;;20.80;55.60;;;;;;4882819;29;20489;-75
2021/11/04 11:40:11;;;;;;;3.77;3.47;;;20.70;55.60;;;;;;4882792;29;20477;-75
2021/11/04 11:42:55;;;;;;;5.50;3.20;;;20.70;55.70;;;;;;4873711;29;20445;-75
2021/11/04 11:45:23;;;;;;;3.37;3.07;;;20.70;55.70;;;;;;4878601;29;20479;-74
2021/11/04 11:47:51;;;;;;;3.53;3.17;;;20.70;55.80;;;;;;4884166;29;20445;-75
2021/11/04 11:50:31;;;;;;;3.93;3.03;;;20.70;55.90;;;;;;4878937;29;20439;-74
2021/11/04 11:53:00;;;;;;;3.53;3.30;;;20.70;55.90;;;;;;4886091;29;20579;-74
2021/11/04 11:55:39;;;;;;;2.93;2.63;;;20.70;55.90;;;;;;4875097;29;20456;-74
2021/11/04 11:58:34;;;;;;;3.50;3.20;;;20.60;56.00;;;;;;4868423;29;20543;-74
2021/11/04 12:01:07;;;;;;;3.40;3.10;;;20.60;55.90;;;;;;4858896;29;20443;-74
2021/11/04 12:03:54;;;;;;;3.23;3.03;;;20.50;56.20;;;;;;4880861;29;20454;-75
2021/11/04 12:06:47;;;;;;;3.47;3.17;;;20.50;56.20;;;;;;4883636;29;20472;-75
2021/11/04 12:09:37;;;;;;;3.63;3.33;;;20.40;56.30;;;;;;4863778;29;20454;-75
2021/11/04 12:12:07;;;;;;;3.90;3.60;;;20.40;56.40;;;;;;4877420;29;20477;-75
2021/11/04 12:14:36;;;;;;;3.60;3.23;;;20.40;56.40;;;;;;4880532;29;20438;-75
2021/11/04 12:17:12;;;;;;;6.70;3.50;;;20.40;56.40;;;;;;4882389;29;20503;-74
2021/11/04 12:19:43;;;;;;;3.00;2.80;;;20.30;56.40;;;;;;4877869;29;20528;-75
2021/11/04 12:22:32;;;;;;;2.93;2.73;;;20.30;56.60;;;;;;4884508;29;20518;-74
2021/11/04 12:25:00;;;;;;;3.60;3.10;;;20.40;56.90;;;;;;4883734;29;20443;-75
2021/11/04 12:27:30;;;;;;;3.40;3.20;;;20.40;56.80;;;;;;4878763;29;20478;-75
2021/11/04 12:30:12;;;;;;;4.00;3.40;;;20.50;56.70;;;;;;4882928;29;20506;-75
2021/11/04 12:32:40;;;;;;;5.07;2.80;;;20.60;56.60;;;;;;4876462;29;20482;-75
2021/11/04 12:35:08;;;;;;;3.40;3.20;;;20.70;56.50;;;;;;4874786;29;20484;-75
2021/11/04 12:37:36;;;;;;;3.37;3.17;;;20.60;56.40;;;;;;4879234;29;20518;-75
2021/11/04 12:40:04;;;;;;;3.40;3.20;;;20.60;56.40;;;;;;4875197;29;20462;-75
2021/11/04 12:42:34;;;;;;;3.37;3.10;;;20.50;56.60;;;;;;4881691;29;20438;-75
2021/11/04 12:45:02;;;;;;;3.50;3.20;;;20.60;56.80;;;;;;4877862;29;20470;-75
2021/11/04 12:47:30;;;;;;;2.90;2.80;;;20.60;56.60;;;;;;4871039;29;20460;-75
2021/11/04 12:49:58;;;;;;;3.10;2.90;;;20.70;56.70;;;;;;4879092;29;20463;-74
2021/11/04 12:52:28;;;;;;;3.07;2.90;;;20.70;56.40;;;;;;4876369;29;20544;-75
2021/11/04 12:54:56;;;;;;;4.60;3.43;;;20.70;56.30;;;;;;4881016;29;20450;-75
2021/11/04 12:57:24;;;;;;;3.23;3.10;;;20.60;56.40;;;;;;4871638;29;20489;-75